sensor_id;sensor_type;location;lat;lon;timestamp;temperature;humidity
21815;DHT22;11069;48.988;8.450;2024-03-08T00:00:14;5.20;99.90
21815;DHT22;11069;48.988;8.450;2024-03-08T00:02:41;5.10;99.90
21815;DHT22;11069;48.988;8.450;2024-03-08T00:05:08;5.10;99.90
21815;DHT22;11069;48.988;8.450;2024-03-08T00:07:39;5.10;99.90
21815;DHT22;11069;48.988;8.450;2024-03-08T00:10:06;5.10;99.90
21815;DHT22;11069;48.988;8.450;2024-03-08T00:12:35;5.10;99.90
21815;DHT22;11069;48.988;8.450;2024-03-08T00:15:01;5.10;99.90
21815;DHT22;11069;48.988;8.450;2024-03-08T00:17:26;5.00;99.90
21815;DHT22;11069;48.988;8.450;2024-03-08T00:19:52;5.00;99.90
21815;DHT22;11069;48.988;8.450;2024-03-08T00:22:18;5.00;99.90
21815;DHT22;11069;48.988;8.450;2024-03-08T00:24:44;5.00;99.90
21815;DHT22;11069;48.988;8.450;2024-03-08T00:27:10;5.00;99.90
21815;DHT22;11069;48.988;8.450;2024-03-08T00:29:37;5.00;99.90
21815;DHT22;11069;48.988;8.450;2024-03-08T00:32:04;4.90;99.90
21815;DHT22;11069;48.988;8.450;2024-03-08T00:34:29;4.90;99.90
21815;DHT22;11069;48.988;8.450;2024-03-08T00:36:55;4.90;99.90
21815;DHT22;11069;48.988;8.450;2024-03-08T00:39:21;4.80;99.90
21815;DHT22;11069;48.988;8.450;2024-03-08T00:41:47;4.80;99.90
21815;DHT22;11069;48.988;8.450;2024-03-08T00:44:13;4.80;99.90
21815;DHT22;11069;48.988;8.450;2024-03-08T00:46:38;4.70;99.90
21815;DHT22;11069;48.988;8.450;2024-03-08T00:49:04;4.70;99.90
21815;DHT22;11069;48.988;8.450;2024-03-08T00:51:29;4.70;99.90
21815;DHT22;11069;48.988;8.450;2024-03-08T00:53:55;4.60;99.90
21815;DHT22;11069;48.988;8.450;2024-03-08T00:56:20;4.50;99.90
21815;DHT22;11069;48.988;8.450;2024-03-08T00:58:46;4.50;99.90
21815;DHT22;11069;48.988;8.450;2024-03-08T01:01:13;4.50;99.90
21815;DHT22;11069;48.988;8.450;2024-03-08T01:03:43;4.50;99.90
21815;DHT22;11069;48.988;8.450;2024-03-08T01:06:08;4.50;99.90
21815;DHT22;11069;48.988;8.450;2024-03-08T01:08:34;4.50;99.90
21815;DHT22;11069;48.988;8.450;2024-03-08T01:11:00;4.50;99.90
21815;DHT22;11069;48.988;8.450;2024-03-08T01:13:25;4.40;99.90
21815;DHT22;11069;48.988;8.450;2024-03-08T01:15:51;4.30;99.90
21815;DHT22;11069;48.988;8.450;2024-03-08T01:18:17;4.30;99.90
21815;DHT22;11069;48.988;8.450;2024-03-08T01:20:42;4.30;99.90
21815;DHT22;11069;48.988;8.450;2024-03-08T01:23:08;4.30;99.90
21815;DHT22;11069;48.988;8.450;2024-03-08T01:25:34;4.20;99.90
21815;DHT22;11069;48.988;8.450;2024-03-08T01:27:59;4.20;99.90
21815;DHT22;11069;48.988;8.450;2024-03-08T01:30:25;4.20;99.90
21815;DHT22;11069;48.988;8.450;2024-03-08T01:32:51;4.10;99.90
21815;DHT22;11069;48.988;8.450;2024-03-08T01:35:16;4.10;99.90
21815;DHT22;11069;48.988;8.450;2024-03-08T01:37:43;4.10;99.90
21815;DHT22;11069;48.988;8.450;2024-03-08T01:40:09;4.10;99.90
21815;DHT22;11069;48.988;8.450;2024-03-08T01:42:35;4.00;99.90
21815;DHT22;11069;48.988;8.450;2024-03-08T01:45:05;4.00;99.90
21815;DHT22;11069;48.988;8.450;2024-03-08T01:47:31;4.00;99.90
21815;DHT22;11069;48.988;8.450;2024-03-08T01:49:59;3.90;99.90
21815;DHT22;11069;48.988;8.450;2024-03-08T01:52:27;4.00;99.90
21815;DHT22;11069;48.988;8.450;2024-03-08T01:54:53;3.90;99.90
21815;DHT22;11069;48.988;8.450;2024-03-08T01:57:20;3.90;99.90
21815;DHT22;11069;48.988;8.450;2024-03-08T01:59:46;3.90;99.90
21815;DHT22;11069;48.988;8.450;2024-03-08T02:02:15;3.90;99.90
21815;DHT22;11069;48.988;8.450;2024-03-08T02:04:43;3.80;99.90
21815;DHT22;11069;48.988;8.450;2024-03-08T02:07:08;3.80;99.90
21815;DHT22;11069;48.988;8.450;2024-03-08T02:09:34;3.80;99.90
21815;DHT22;11069;48.988;8.450;2024-03-08T02:11:59;3.70;99.90
21815;DHT22;11069;48.988;8.450;2024-03-08T02:14:25;3.70;99.90
21815;DHT22;11069;48.988;8.450;2024-03-08T02:16:51;3.70;99.90
21815;DHT22;11069;48.988;8.450;2024-03-08T02:19:16;3.70;99.90
21815;DHT22;11069;48.988;8.450;2024-03-08T02:21:42;3.60;99.90
21815;DHT22;11069;48.988;8.450;2024-03-08T02:24:09;3.60;99.90
21815;DHT22;11069;48.988;8.450;2024-03-08T02:26:34;3.60;99.90
21815;DHT22;11069;48.988;8.450;2024-03-08T02:29:00;3.50;99.90
21815;DHT22;11069;48.988;8.450;2024-03-08T02:31:26;3.50;99.90
21815;DHT22;11069;48.988;8.450;2024-03-08T02:33:51;3.40;99.90
21815;DHT22;11069;48.988;8.450;2024-03-08T02:36:17;3.40;99.90
21815;DHT22;11069;48.988;8.450;2024-03-08T02:38:43;3.40;99.90
21815;DHT22;11069;48.988;8.450;2024-03-08T02:41:08;3.30;99.90
21815;DHT22;11069;48.988;8.450;2024-03-08T02:43:34;3.30;99.90
21815;DHT22;11069;48.988;8.450;2024-03-08T02:46:00;3.40;99.90
21815;DHT22;11069;48.988;8.450;2024-03-08T02:48:25;3.40;99.90
21815;DHT22;11069;48.988;8.450;2024-03-08T02:50:51;3.30;99.90
21815;DHT22;11069;48.988;8.450;2024-03-08T02:53:16;3.20;99.90
21815;DHT22;11069;48.988;8.450;2024-03-08T02:55:44;3.20;99.90
21815;DHT22;11069;48.988;8.450;2024-03-08T02:58:10;3.20;99.90
21815;DHT22;11069;48.988;8.450;2024-03-08T03:00:36;3.10;99.90
21815;DHT22;11069;48.988;8.450;2024-03-08T03:03:02;3.10;99.90
21815;DHT22;11069;48.988;8.450;2024-03-08T03:05:29;3.10;99.90
21815;DHT22;11069;48.988;8.450;2024-03-08T03:07:55;3.00;99.90
21815;DHT22;11069;48.988;8.450;2024-03-08T03:10:21;3.00;99.90
21815;DHT22;11069;48.988;8.450;2024-03-08T03:12:47;3.00;99.90
21815;DHT22;11069;48.988;8.450;2024-03-08T03:15:17;3.00;99.90
21815;DHT22;11069;48.988;8.450;2024-03-08T03:17:49;3.00;99.90
21815;DHT22;11069;48.988;8.450;2024-03-08T03:20:19;3.00;99.90
21815;DHT22;11069;48.988;8.450;2024-03-08T03:22:58;3.00;99.90
21815;DHT22;11069;48.988;8.450;2024-03-08T03:25:26;2.90;99.90
21815;DHT22;11069;48.988;8.450;2024-03-08T03:27:54;2.90;99.90
21815;DHT22;11069;48.988;8.450;2024-03-08T03:30:26;2.70;99.90
21815;DHT22;11069;48.988;8.450;2024-03-08T03:32:55;2.70;99.90
21815;DHT22;11069;48.988;8.450;2024-03-08T03:35:24;2.80;99.90
21815;DHT22;11069;48.988;8.450;2024-03-08T03:37:49;2.70;99.90
21815;DHT22;11069;48.988;8.450;2024-03-08T03:40:37;2.70;99.90
21815;DHT22;11069;48.988;8.450;2024-03-08T03:43:03;2.70;99.90
21815;DHT22;11069;48.988;8.450;2024-03-08T03:45:29;2.70;99.90
21815;DHT22;11069;48.988;8.450;2024-03-08T03:47:54;2.80;99.90
21815;DHT22;11069;48.988;8.450;2024-03-08T03:50:21;2.70;99.90
21815;DHT22;11069;48.988;8.450;2024-03-08T03:52:47;2.70;99.90
21815;DHT22;11069;48.988;8.450;2024-03-08T03:55:14;2.70;99.90
21815;DHT22;11069;48.988;8.450;2024-03-08T03:57:40;2.70;99.90
21815;DHT22;11069;48.988;8.450;2024-03-08T04:00:06;2.60;99.90
21815;DHT22;11069;48.988;8.450;2024-03-08T04:02:39;2.60;99.90
21815;DHT22;11069;48.988;8.450;2024-03-08T04:05:05;2.50;99.90
21815;DHT22;11069;48.988;8.450;2024-03-08T04:07:31;2.50;99.90
21815;DHT22;11069;48.988;8.450;2024-03-08T04:09:57;2.50;99.90
21815;DHT22;11069;48.988;8.450;2024-03-08T04:12:23;2.50;99.90
21815;DHT22;11069;48.988;8.450;2024-03-08T04:14:48;2.60;99.90
21815;DHT22;11069;48.988;8.450;2024-03-08T04:17:14;2.50;99.90
21815;DHT22;11069;48.988;8.450;2024-03-08T04:19:39;2.50;99.90
21815;DHT22;11069;48.988;8.450;2024-03-08T04:22:08;2.50;99.90
21815;DHT22;11069;48.988;8.450;2024-03-08T04:24:34;2.40;99.90
21815;DHT22;11069;48.988;8.450;2024-03-08T04:26:59;2.40;99.90
21815;DHT22;11069;48.988;8.450;2024-03-08T04:29:25;2.30;99.90
21815;DHT22;11069;48.988;8.450;2024-03-08T04:31:51;2.30;99.90
21815;DHT22;11069;48.988;8.450;2024-03-08T04:34:20;2.30;99.90
21815;DHT22;11069;48.988;8.450;2024-03-08T04:36:47;2.20;99.90
21815;DHT22;11069;48.988;8.450;2024-03-08T04:39:13;2.30;99.90
21815;DHT22;11069;48.988;8.450;2024-03-08T04:41:39;2.30;99.90
21815;DHT22;11069;48.988;8.450;2024-03-08T04:44:05;2.20;99.90
21815;DHT22;11069;48.988;8.450;2024-03-08T04:46:31;2.30;99.90
21815;DHT22;11069;48.988;8.450;2024-03-08T04:48:56;2.20;99.90
21815;DHT22;11069;48.988;8.450;2024-03-08T04:51:24;2.10;99.90
21815;DHT22;11069;48.988;8.450;2024-03-08T04:53:50;2.20;99.90
21815;DHT22;11069;48.988;8.450;2024-03-08T04:56:16;2.20;99.90
21815;DHT22;11069;48.988;8.450;2024-03-08T04:58:41;2.10;99.90
21815;DHT22;11069;48.988;8.450;2024-03-08T05:01:07;2.10;99.90
21815;DHT22;11069;48.988;8.450;2024-03-08T05:03:35;2.20;99.90
21815;DHT22;11069;48.988;8.450;2024-03-08T05:06:01;2.20;99.90
21815;DHT22;11069;48.988;8.450;2024-03-08T05:08:26;2.20;99.90
21815;DHT22;11069;48.988;8.450;2024-03-08T05:10:52;2.20;99.90
21815;DHT22;11069;48.988;8.450;2024-03-08T05:13:17;2.10;99.90
21815;DHT22;11069;48.988;8.450;2024-03-08T05:15:44;2.10;99.90
21815;DHT22;11069;48.988;8.450;2024-03-08T05:18:13;2.10;99.90
21815;DHT22;11069;48.988;8.450;2024-03-08T05:20:39;2.10;99.90
21815;DHT22;11069;48.988;8.450;2024-03-08T05:23:06;2.00;99.90
21815;DHT22;11069;48.988;8.450;2024-03-08T05:25:32;2.00;99.90
21815;DHT22;11069;48.988;8.450;2024-03-08T05:27:58;2.00;99.90
21815;DHT22;11069;48.988;8.450;2024-03-08T05:30:23;2.00;99.90
21815;DHT22;11069;48.988;8.450;2024-03-08T05:32:49;2.00;99.90
21815;DHT22;11069;48.988;8.450;2024-03-08T05:35:14;2.00;99.90
21815;DHT22;11069;48.988;8.450;2024-03-08T05:37:41;2.10;99.90
21815;DHT22;11069;48.988;8.450;2024-03-08T05:40:08;2.10;99.90
21815;DHT22;11069;48.988;8.450;2024-03-08T05:42:35;2.10;99.90
21815;DHT22;11069;48.988;8.450;2024-03-08T05:45:02;2.10;99.90
21815;DHT22;11069;48.988;8.450;2024-03-08T05:47:28;2.10;99.90
21815;DHT22;11069;48.988;8.450;2024-03-08T05:49:54;2.10;99.90
21815;DHT22;11069;48.988;8.450;2024-03-08T05:52:20;2.10;99.90
21815;DHT22;11069;48.988;8.450;2024-03-08T05:54:45;2.20;99.90
21815;DHT22;11069;48.988;8.450;2024-03-08T05:57:12;2.20;99.90
21815;DHT22;11069;48.988;8.450;2024-03-08T05:59:39;2.20;99.90
21815;DHT22;11069;48.988;8.450;2024-03-08T06:02:05;2.20;99.90
21815;DHT22;11069;48.988;8.450;2024-03-08T06:04:30;2.20;99.90
21815;DHT22;11069;48.988;8.450;2024-03-08T06:06:56;2.20;99.90
21815;DHT22;11069;48.988;8.450;2024-03-08T06:09:24;2.20;99.90
21815;DHT22;11069;48.988;8.450;2024-03-08T06:11:50;2.20;99.90
21815;DHT22;11069;48.988;8.450;2024-03-08T06:14:16;2.20;99.90
21815;DHT22;11069;48.988;8.450;2024-03-08T06:16:45;2.30;99.90
21815;DHT22;11069;48.988;8.450;2024-03-08T06:19:10;2.30;99.90
21815;DHT22;11069;48.988;8.450;2024-03-08T06:21:37;2.20;99.90
21815;DHT22;11069;48.988;8.450;2024-03-08T06:24:03;2.20;99.90
21815;DHT22;11069;48.988;8.450;2024-03-08T06:26:28;2.30;99.90
21815;DHT22;11069;48.988;8.450;2024-03-08T06:28:54;2.40;99.90
21815;DHT22;11069;48.988;8.450;2024-03-08T06:31:20;2.40;99.90
21815;DHT22;11069;48.988;8.450;2024-03-08T06:33:46;2.30;99.90
21815;DHT22;11069;48.988;8.450;2024-03-08T06:36:12;2.40;99.90
21815;DHT22;11069;48.988;8.450;2024-03-08T06:38:40;2.50;99.90
21815;DHT22;11069;48.988;8.450;2024-03-08T06:41:09;2.50;99.90
21815;DHT22;11069;48.988;8.450;2024-03-08T06:43:34;2.60;99.90
21815;DHT22;11069;48.988;8.450;2024-03-08T06:46:01;2.60;99.90
21815;DHT22;11069;48.988;8.450;2024-03-08T06:48:26;2.70;99.90
21815;DHT22;11069;48.988;8.450;2024-03-08T06:50:52;2.70;99.90
21815;DHT22;11069;48.988;8.450;2024-03-08T06:53:17;2.70;99.90
21815;DHT22;11069;48.988;8.450;2024-03-08T06:55:46;2.80;99.90
21815;DHT22;11069;48.988;8.450;2024-03-08T06:58:11;2.90;99.90
21815;DHT22;11069;48.988;8.450;2024-03-08T07:00:38;2.90;99.90
21815;DHT22;11069;48.988;8.450;2024-03-08T07:03:04;3.00;99.90
21815;DHT22;11069;48.988;8.450;2024-03-08T07:05:32;3.00;99.90
21815;DHT22;11069;48.988;8.450;2024-03-08T07:07:58;3.10;99.90
21815;DHT22;11069;48.988;8.450;2024-03-08T07:10:24;3.20;99.90
21815;DHT22;11069;48.988;8.450;2024-03-08T07:12:54;3.40;99.90
21815;DHT22;11069;48.988;8.450;2024-03-08T07:15:20;4.00;99.90
21815;DHT22;11069;48.988;8.450;2024-03-08T07:17:46;4.80;99.90
21815;DHT22;11069;48.988;8.450;2024-03-08T07:20:13;5.10;99.90
21815;DHT22;11069;48.988;8.450;2024-03-08T07:22:39;5.60;99.90
21815;DHT22;11069;48.988;8.450;2024-03-08T07:25:05;6.20;99.90
21815;DHT22;11069;48.988;8.450;2024-03-08T07:27:48;6.50;99.90
21815;DHT22;11069;48.988;8.450;2024-03-08T07:30:13;6.50;99.90
21815;DHT22;11069;48.988;8.450;2024-03-08T07:32:59;6.40;99.90
21815;DHT22;11069;48.988;8.450;2024-03-08T07:35:28;6.10;99.90
21815;DHT22;11069;48.988;8.450;2024-03-08T07:37:54;6.00;99.90
21815;DHT22;11069;48.988;8.450;2024-03-08T07:40:23;6.20;99.90
21815;DHT22;11069;48.988;8.450;2024-03-08T07:42:49;6.60;99.90
21815;DHT22;11069;48.988;8.450;2024-03-08T07:45:15;6.80;99.90
21815;DHT22;11069;48.988;8.450;2024-03-08T07:47:41;7.00;99.90
21815;DHT22;11069;48.988;8.450;2024-03-08T07:50:07;7.00;99.90
21815;DHT22;11069;48.988;8.450;2024-03-08T07:52:36;7.20;99.90
21815;DHT22;11069;48.988;8.450;2024-03-08T07:55:02;7.40;99.90
21815;DHT22;11069;48.988;8.450;2024-03-08T07:57:31;7.40;99.90
21815;DHT22;11069;48.988;8.450;2024-03-08T07:59:57;7.70;99.90
21815;DHT22;11069;48.988;8.450;2024-03-08T08:02:23;7.40;99.90
21815;DHT22;11069;48.988;8.450;2024-03-08T08:04:49;7.50;99.90
21815;DHT22;11069;48.988;8.450;2024-03-08T08:07:14;7.30;99.90
21815;DHT22;11069;48.988;8.450;2024-03-08T08:09:40;7.30;99.90
21815;DHT22;11069;48.988;8.450;2024-03-08T08:12:08;7.50;99.90
21815;DHT22;11069;48.988;8.450;2024-03-08T08:14:37;7.90;99.90
21815;DHT22;11069;48.988;8.450;2024-03-08T08:17:03;7.80;99.90
21815;DHT22;11069;48.988;8.450;2024-03-08T08:19:29;7.90;99.90
21815;DHT22;11069;48.988;8.450;2024-03-08T08:21:55;8.00;99.90
21815;DHT22;11069;48.988;8.450;2024-03-08T08:24:21;7.70;99.90
21815;DHT22;11069;48.988;8.450;2024-03-08T08:26:47;8.00;99.90
21815;DHT22;11069;48.988;8.450;2024-03-08T08:29:13;8.30;99.90
21815;DHT22;11069;48.988;8.450;2024-03-08T08:31:39;7.70;99.90
21815;DHT22;11069;48.988;8.450;2024-03-08T08:34:04;7.60;99.90
21815;DHT22;11069;48.988;8.450;2024-03-08T08:36:31;7.90;99.90
21815;DHT22;11069;48.988;8.450;2024-03-08T08:38:57;8.30;99.90
21815;DHT22;11069;48.988;8.450;2024-03-08T08:41:23;8.50;99.90
21815;DHT22;11069;48.988;8.450;2024-03-08T08:43:49;8.30;99.90
21815;DHT22;11069;48.988;8.450;2024-03-08T08:46:18;8.60;99.90
21815;DHT22;11069;48.988;8.450;2024-03-08T08:48:44;9.50;99.90
21815;DHT22;11069;48.988;8.450;2024-03-08T08:51:13;9.30;99.90
21815;DHT22;11069;48.988;8.450;2024-03-08T08:53:39;8.30;99.90
21815;DHT22;11069;48.988;8.450;2024-03-08T08:56:11;8.90;99.90
21815;DHT22;11069;48.988;8.450;2024-03-08T08:58:42;9.70;99.90
21815;DHT22;11069;48.988;8.450;2024-03-08T09:01:09;9.90;99.90
21815;DHT22;11069;48.988;8.450;2024-03-08T09:03:36;9.60;99.90
21815;DHT22;11069;48.988;8.450;2024-03-08T09:06:08;9.40;99.90
21815;DHT22;11069;48.988;8.450;2024-03-08T09:08:36;9.60;99.90
21815;DHT22;11069;48.988;8.450;2024-03-08T09:11:01;9.60;99.90
21815;DHT22;11069;48.988;8.450;2024-03-08T09:13:27;9.50;99.90
21815;DHT22;11069;48.988;8.450;2024-03-08T09:15:53;9.40;99.90
21815;DHT22;11069;48.988;8.450;2024-03-08T09:18:18;9.50;99.90
21815;DHT22;11069;48.988;8.450;2024-03-08T09:20:44;9.30;99.90
21815;DHT22;11069;48.988;8.450;2024-03-08T09:23:10;9.50;99.90
21815;DHT22;11069;48.988;8.450;2024-03-08T09:25:36;9.60;99.90
21815;DHT22;11069;48.988;8.450;2024-03-08T09:28:01;9.50;99.90
21815;DHT22;11069;48.988;8.450;2024-03-08T09:30:27;9.50;99.90
21815;DHT22;11069;48.988;8.450;2024-03-08T09:32:54;9.30;99.90
21815;DHT22;11069;48.988;8.450;2024-03-08T09:35:19;9.30;99.90
21815;DHT22;11069;48.988;8.450;2024-03-08T09:37:45;9.40;99.90
21815;DHT22;11069;48.988;8.450;2024-03-08T09:40:14;10.00;99.90
21815;DHT22;11069;48.988;8.450;2024-03-08T09:42:41;10.50;99.90
21815;DHT22;11069;48.988;8.450;2024-03-08T09:45:11;10.60;99.90
21815;DHT22;11069;48.988;8.450;2024-03-08T09:47:39;11.00;99.90
21815;DHT22;11069;48.988;8.450;2024-03-08T09:50:08;10.80;99.90
21815;DHT22;11069;48.988;8.450;2024-03-08T09:52:37;10.30;99.90
21815;DHT22;11069;48.988;8.450;2024-03-08T09:55:05;9.90;99.90
21815;DHT22;11069;48.988;8.450;2024-03-08T09:57:32;10.30;99.90
21815;DHT22;11069;48.988;8.450;2024-03-08T09:59:59;10.40;99.90
21815;DHT22;11069;48.988;8.450;2024-03-08T10:02:24;10.30;99.90
21815;DHT22;11069;48.988;8.450;2024-03-08T10:04:51;10.40;99.90
21815;DHT22;11069;48.988;8.450;2024-03-08T10:07:18;10.60;99.90
21815;DHT22;11069;48.988;8.450;2024-03-08T10:09:44;10.90;99.90
21815;DHT22;11069;48.988;8.450;2024-03-08T10:12:15;10.70;99.90
21815;DHT22;11069;48.988;8.450;2024-03-08T10:14:41;10.70;99.90
21815;DHT22;11069;48.988;8.450;2024-03-08T10:17:07;10.60;99.90
21815;DHT22;11069;48.988;8.450;2024-03-08T10:19:33;10.80;99.90
21815;DHT22;11069;48.988;8.450;2024-03-08T10:21:59;10.40;99.90
21815;DHT22;11069;48.988;8.450;2024-03-08T10:24:25;10.90;99.90
21815;DHT22;11069;48.988;8.450;2024-03-08T10:26:58;11.30;99.90
21815;DHT22;11069;48.988;8.450;2024-03-08T10:29:25;10.80;99.90
21815;DHT22;11069;48.988;8.450;2024-03-08T10:31:50;10.90;99.90
21815;DHT22;11069;48.988;8.450;2024-03-08T10:34:17;11.20;99.90
21815;DHT22;11069;48.988;8.450;2024-03-08T10:36:42;11.50;99.20
21815;DHT22;11069;48.988;8.450;2024-03-08T10:39:25;11.40;99.10
21815;DHT22;11069;48.988;8.450;2024-03-08T10:41:58;10.90;99.90
21815;DHT22;11069;48.988;8.450;2024-03-08T10:47:18;11.50;99.60
21815;DHT22;11069;48.988;8.450;2024-03-08T10:49:55;11.70;98.90
21815;DHT22;11069;48.988;8.450;2024-03-08T10:52:29;11.60;98.90
21815;DHT22;11069;48.988;8.450;2024-03-08T10:54:55;11.50;99.50
21815;DHT22;11069;48.988;8.450;2024-03-08T10:57:22;11.50;99.20
21815;DHT22;11069;48.988;8.450;2024-03-08T10:59:53;12.00;98.50
21815;DHT22;11069;48.988;8.450;2024-03-08T11:02:19;12.00;98.10
21815;DHT22;11069;48.988;8.450;2024-03-08T11:04:49;12.10;98.50
21815;DHT22;11069;48.988;8.450;2024-03-08T11:07:15;11.90;97.80
21815;DHT22;11069;48.988;8.450;2024-03-08T11:09:47;10.80;99.00
21815;DHT22;11069;48.988;8.450;2024-03-08T11:12:29;10.60;99.90
21815;DHT22;11069;48.988;8.450;2024-03-08T11:14:55;11.40;99.80
21815;DHT22;11069;48.988;8.450;2024-03-08T11:17:26;11.40;99.10
21815;DHT22;11069;48.988;8.450;2024-03-08T11:19:55;11.40;98.50
21815;DHT22;11069;48.988;8.450;2024-03-08T11:22:48;11.20;99.10
21815;DHT22;11069;48.988;8.450;2024-03-08T11:25:50;12.10;98.80
21815;DHT22;11069;48.988;8.450;2024-03-08T11:28:23;12.50;98.20
21815;DHT22;11069;48.988;8.450;2024-03-08T11:33:26;12.30;98.40
21815;DHT22;11069;48.988;8.450;2024-03-08T11:35:57;13.00;98.40
21815;DHT22;11069;48.988;8.450;2024-03-08T11:38:28;13.10;96.80
21815;DHT22;11069;48.988;8.450;2024-03-08T11:40:57;13.00;97.30
21815;DHT22;11069;48.988;8.450;2024-03-08T11:43:22;12.80;96.50
21815;DHT22;11069;48.988;8.450;2024-03-08T11:45:48;12.60;97.10
21815;DHT22;11069;48.988;8.450;2024-03-08T11:48:13;11.80;98.50
21815;DHT22;11069;48.988;8.450;2024-03-08T11:50:40;11.60;99.40
21815;DHT22;11069;48.988;8.450;2024-03-08T11:53:05;11.00;99.30
21815;DHT22;11069;48.988;8.450;2024-03-08T11:55:34;11.20;99.00
21815;DHT22;11069;48.988;8.450;2024-03-08T11:58:04;11.00;99.00
21815;DHT22;11069;48.988;8.450;2024-03-08T12:00:30;11.10;99.70
21815;DHT22;11069;48.988;8.450;2024-03-08T12:03:07;11.20;99.30
21815;DHT22;11069;48.988;8.450;2024-03-08T12:05:35;12.40;98.40
21815;DHT22;11069;48.988;8.450;2024-03-08T12:08:01;12.40;97.70
21815;DHT22;11069;48.988;8.450;2024-03-08T12:10:27;12.10;98.20
21815;DHT22;11069;48.988;8.450;2024-03-08T12:12:54;11.80;98.40
21815;DHT22;11069;48.988;8.450;2024-03-08T12:15:23;11.20;99.90
21815;DHT22;11069;48.988;8.450;2024-03-08T12:17:53;11.40;99.40
21815;DHT22;11069;48.988;8.450;2024-03-08T12:20:26;12.00;99.10
21815;DHT22;11069;48.988;8.450;2024-03-08T12:22:53;11.30;98.80
21815;DHT22;11069;48.988;8.450;2024-03-08T12:25:19;11.30;99.10
21815;DHT22;11069;48.988;8.450;2024-03-08T12:27:46;11.20;99.50
21815;DHT22;11069;48.988;8.450;2024-03-08T12:35:15;11.20;99.90
21815;DHT22;11069;48.988;8.450;2024-03-08T12:37:41;11.40;99.90
21815;DHT22;11069;48.988;8.450;2024-03-08T12:40:09;10.90;99.90
21815;DHT22;11069;48.988;8.450;2024-03-08T12:42:35;11.40;99.90
21815;DHT22;11069;48.988;8.450;2024-03-08T12:45:00;12.00;99.00
21815;DHT22;11069;48.988;8.450;2024-03-08T12:47:27;12.50;98.60
21815;DHT22;11069;48.988;8.450;2024-03-08T12:49:54;12.10;98.30
21815;DHT22;11069;48.988;8.450;2024-03-08T12:52:20;11.30;99.20
21815;DHT22;11069;48.988;8.450;2024-03-08T12:54:45;11.20;99.90
21815;DHT22;11069;48.988;8.450;2024-03-08T12:57:13;11.20;99.60
21815;DHT22;11069;48.988;8.450;2024-03-08T12:59:39;11.30;99.90
21815;DHT22;11069;48.988;8.450;2024-03-08T13:02:05;11.30;99.70
21815;DHT22;11069;48.988;8.450;2024-03-08T13:04:36;11.40;99.90
21815;DHT22;11069;48.988;8.450;2024-03-08T13:07:02;11.30;99.70
21815;DHT22;11069;48.988;8.450;2024-03-08T13:09:28;11.10;99.90
21815;DHT22;11069;48.988;8.450;2024-03-08T13:11:54;11.00;99.90
21815;DHT22;11069;48.988;8.450;2024-03-08T13:14:21;11.70;99.90
21815;DHT22;11069;48.988;8.450;2024-03-08T13:16:47;12.00;99.60
21815;DHT22;11069;48.988;8.450;2024-03-08T13:19:13;12.10;99.60
21815;DHT22;11069;48.988;8.450;2024-03-08T13:21:39;12.20;99.50
21815;DHT22;11069;48.988;8.450;2024-03-08T13:24:05;12.70;99.00
21815;DHT22;11069;48.988;8.450;2024-03-08T13:26:31;13.40;97.50
21815;DHT22;11069;48.988;8.450;2024-03-08T13:28:59;13.40;96.60
21815;DHT22;11069;48.988;8.450;2024-03-08T13:31:28;13.10;98.00
21815;DHT22;11069;48.988;8.450;2024-03-08T13:33:53;13.50;97.40
21815;DHT22;11069;48.988;8.450;2024-03-08T13:36:23;13.80;97.30
21815;DHT22;11069;48.988;8.450;2024-03-08T13:38:54;14.00;97.10
21815;DHT22;11069;48.988;8.450;2024-03-08T13:41:20;14.50;95.50
21815;DHT22;11069;48.988;8.450;2024-03-08T13:43:48;14.70;94.90
21815;DHT22;11069;48.988;8.450;2024-03-08T13:46:15;13.90;96.20
21815;DHT22;11069;48.988;8.450;2024-03-08T13:48:41;13.90;96.10
21815;DHT22;11069;48.988;8.450;2024-03-08T13:51:07;14.00;96.20
21815;DHT22;11069;48.988;8.450;2024-03-08T13:53:35;13.70;96.20
21815;DHT22;11069;48.988;8.450;2024-03-08T13:56:04;14.10;96.80
21815;DHT22;11069;48.988;8.450;2024-03-08T13:58:30;14.10;96.20
21815;DHT22;11069;48.988;8.450;2024-03-08T14:00:56;14.00;96.00
21815;DHT22;11069;48.988;8.450;2024-03-08T14:03:22;13.90;96.50
21815;DHT22;11069;48.988;8.450;2024-03-08T14:05:49;14.40;96.20
21815;DHT22;11069;48.988;8.450;2024-03-08T14:08:15;14.80;96.40
21815;DHT22;11069;48.988;8.450;2024-03-08T14:10:43;15.80;94.80
21815;DHT22;11069;48.988;8.450;2024-03-08T14:13:08;14.90;95.20
21815;DHT22;11069;48.988;8.450;2024-03-08T14:15:34;14.90;94.90
21815;DHT22;11069;48.988;8.450;2024-03-08T14:18:01;14.70;95.30
21815;DHT22;11069;48.988;8.450;2024-03-08T14:20:27;13.90;96.20
21815;DHT22;11069;48.988;8.450;2024-03-08T14:22:55;13.60;96.40
21815;DHT22;11069;48.988;8.450;2024-03-08T14:25:21;13.90;96.50
21815;DHT22;11069;48.988;8.450;2024-03-08T14:27:49;14.00;96.10
21815;DHT22;11069;48.988;8.450;2024-03-08T14:30:15;14.20;95.00
21815;DHT22;11069;48.988;8.450;2024-03-08T14:33:06;14.00;95.50
21815;DHT22;11069;48.988;8.450;2024-03-08T14:35:35;14.00;95.90
21815;DHT22;11069;48.988;8.450;2024-03-08T14:38:01;13.90;95.40
21815;DHT22;11069;48.988;8.450;2024-03-08T14:40:26;14.10;95.10
21815;DHT22;11069;48.988;8.450;2024-03-08T14:42:52;13.50;96.30
21815;DHT22;11069;48.988;8.450;2024-03-08T14:45:18;13.70;96.00
21815;DHT22;11069;48.988;8.450;2024-03-08T14:47:48;13.60;95.40
21815;DHT22;11069;48.988;8.450;2024-03-08T14:50:20;13.80;96.10
21815;DHT22;11069;48.988;8.450;2024-03-08T14:52:46;13.90;95.80
21815;DHT22;11069;48.988;8.450;2024-03-08T14:55:16;14.00;95.10
21815;DHT22;11069;48.988;8.450;2024-03-08T14:57:42;14.20;95.30
21815;DHT22;11069;48.988;8.450;2024-03-08T15:00:11;14.20;95.90
21815;DHT22;11069;48.988;8.450;2024-03-08T15:02:44;14.50;95.20
21815;DHT22;11069;48.988;8.450;2024-03-08T15:05:10;14.10;94.90
21815;DHT22;11069;48.988;8.450;2024-03-08T15:07:41;14.10;95.00
21815;DHT22;11069;48.988;8.450;2024-03-08T15:10:08;13.80;95.80
21815;DHT22;11069;48.988;8.450;2024-03-08T15:12:37;13.20;96.30
21815;DHT22;11069;48.988;8.450;2024-03-08T15:15:07;12.80;97.10
21815;DHT22;11069;48.988;8.450;2024-03-08T15:17:34;12.50;97.20
21815;DHT22;11069;48.988;8.450;2024-03-08T15:20:00;12.50;96.80
21815;DHT22;11069;48.988;8.450;2024-03-08T15:22:26;12.20;97.60
21815;DHT22;11069;48.988;8.450;2024-03-08T15:24:52;12.10;98.20
21815;DHT22;11069;48.988;8.450;2024-03-08T15:27:18;11.90;98.30
21815;DHT22;11069;48.988;8.450;2024-03-08T15:29:44;12.10;98.70
21815;DHT22;11069;48.988;8.450;2024-03-08T15:32:14;12.00;98.30
21815;DHT22;11069;48.988;8.450;2024-03-08T15:34:45;12.00;98.70
21815;DHT22;11069;48.988;8.450;2024-03-08T15:37:11;12.00;98.60
21815;DHT22;11069;48.988;8.450;2024-03-08T15:39:45;12.00;98.00
21815;DHT22;11069;48.988;8.450;2024-03-08T15:42:11;12.00;98.30
21815;DHT22;11069;48.988;8.450;2024-03-08T15:44:37;12.20;98.50
21815;DHT22;11069;48.988;8.450;2024-03-08T15:47:04;12.10;98.50
21815;DHT22;11069;48.988;8.450;2024-03-08T15:49:32;11.60;98.50